Nearby METAR Reports

 

KCPC - Whiteville, North Carolina, USA
Distance from station: NNE 17mi, 28km
Updated: 04/25/2017 6:15am
Mist, Overcast
Mist, Overcast
 Wind from calm
Wind: Calm
Temperature: 61°F , 16°C
Dew Point: 61°F , 16°C
Humidity: 100%
Barometer: 29.57 inHg , 1001.4 hPa
Summary: Mist
Clouds: Overcast
Visibility: 1 mile , 2 km
Cloud details: Overcast 200 ft
2017/04/25 10:15 KCPC 251015Z AUTO 00000KT 1SM BR OVC002 16/16 A2957 RMK AO2 T01600155
KCRE - North Myrtle Bea, South Carolina, USA
Distance from station: SSE 19mi, 31km
Updated: 04/25/2017 5:53am
Mist, Overcast
Mist, Overcast
 Wind from W
Wind: W 7 mph , 11 km/h
Temperature: 61°F , 16°C
Dew Point: 61°F , 16°C
Humidity: 100%
Barometer: 29.57 inHg , 1001.4 hPa
Summary: Mist
Clouds: Overcast
Visibility: 3 miles , 5 km
Cloud details: Overcast 300 ft
2017/04/25 09:53 KCRE 250953Z AUTO 27006KT 3SM BR OVC003 16/16 A2957 RMK AO1 SLP014 T01610161
 
KHYW - Conway-Horry Cty, South Carolina, USA
Distance from station: SW 22mi, 35km
Updated: 04/25/2017 6:15am
Mist, Overcast
Mist, Overcast
 Wind from WSW
Wind: WSW 3 mph , 6 km/h
Temperature: 57°F , 14°C
Dew Point: 57°F , 14°C
Humidity: 100%
Barometer: 29.60 inHg , 1002.4 hPa
Summary: Mist
Clouds: Overcast
Visibility: 5 miles , 8 km
Cloud details: Overcast 300 ft
2017/04/25 10:15 KHYW 251015Z AUTO 24003KT 5SM BR OVC003 14/14 A2960 RMK AO2 LTG DSNT NE
KMAO - Marion, South Carolina, USA
Distance from station: WNW 28mi, 45km
Updated: 04/25/2017 6:35am
Mist, Overcast
Mist, Overcast
 Wind from calm
Wind: Calm
Temperature: 55°F , 13°C
Dew Point: 55°F , 13°C
Humidity: 100%
Barometer: 29.61 inHg , 1002.7 hPa
Summary: Mist
Clouds: Overcast
Visibility: 3 miles , 5 km
Cloud details: Overcast 200 ft
2017/04/25 10:35 KMAO 251035Z AUTO 00000KT 3SM BR OVC002 13/13 A2961 RMK AO2 LTG DSNT NE
 
KMYR - Myrtle Beach, South Carolina, USA
Distance from station: S 28mi, 45km
Updated: 04/25/2017 5:56am
Mist, Overcast
Mist, Overcast
 Wind from W
Wind: W 9 mph , 15 km/h
Temperature: 61°F , 16°C
Dew Point: 61°F , 16°C
Humidity: 100%
Barometer: 29.60 inHg , 1002.4 hPa
Summary: Mist
Clouds: Overcast
Visibility: 5 miles , 8 km
Cloud details: Mostly cloudy 600 ft
Overcast 1300 ft
2017/04/25 09:56 KMYR 250956Z AUTO 28008KT 5SM BR BKN006 OVC013 16/16 A2960 RMK AO2 SLP022 T01610156
KLBT - Lumberton, North Carolina, USA
Distance from station: NNW 39mi, 62km
Updated: 04/25/2017 5:59am
Mist, Overcast
Mist, Overcast
 Wind from W
Wind: W 5 mph , 7 km/h
Temperature: 57°F , 14°C
Dew Point: 57°F , 14°C
Humidity: 100%
Barometer: 29.58 inHg , 1001.7 hPa
Summary: Mist
Clouds: Overcast
Visibility: 3/4 mile , 5 km
Cloud details: Overcast 300 ft
2017/04/25 09:59 KLBT 250959Z AUTO 26004KT 3/4SM BR VV003 14/14 A2958 RMK AO2 T01440144
 
KSUT - Southport, North Carolina, USA
Distance from station: E 46mi, 74km
Updated: 04/25/2017 6:20am
Clear
Clear
 Wind from calm
Wind: Calm
Temperature: 63°F , 17°C
Dew Point: 63°F , 17°C
Humidity: 100%
Barometer: 29.57 inHg , 1001.4 hPa
Clouds: Clear
Visibility: 10 miles , 16 km
2017/04/25 10:20 KSUT 251020Z AUTO 00000KT 10SM CLR 17/17 A2957 RMK AO2 T01700165
KFLO - Florence, South Carolina, USA
Distance from station: W 50mi, 81km
Updated: 04/25/2017 6:23am
Overcast
Overcast
 Wind from NW
Wind: NW 5 mph , 7 km/h
Temperature: 57°F , 14°C
Dew Point: 57°F , 14°C
Humidity: 100%
Barometer: 29.61 inHg , 1002.7 hPa
Clouds: Overcast
Visibility: 9 miles , 14 km
Cloud details: Overcast 400 ft
2017/04/25 10:23 KFLO 251023Z AUTO 32004KT 9SM OVC004 14/14 A2961 RMK AO2 T01390139